QS1082 / OK-SWW 7700 Squawk Report (25th of June, 2021)

Time Lat Lon Altitude Heading Speed Vertical Rate
2021-06-25 11:48:55 GMT 43.516479 16.257530 475 52 138 -640
2021-06-25 11:48:06 GMT 43.496567 16.221697 1,100 52 156 -704
2021-06-25 11:48:04 GMT 43.495293 16.219418 1,125 52 156 -704
2021-06-25 11:47:25 GMT 43.477650 16.187962 1,650 52 179 -960
2021-06-25 11:47:18 GMT 43.474319 16.182032 1,750 52 180 -1024
2021-06-25 11:46:49 GMT 43.459167 16.154938 2,225 52 183 -832
2021-06-25 11:46:47 GMT 43.458023 16.152905 2,275 52 183 -896
2021-06-25 11:46:37 GMT 43.453255 16.144344 2,400 52 184 -832
2021-06-25 11:46:28 GMT 43.447952 16.134829 2,600 52 186 -1408
2021-06-25 11:46:14 GMT 43.440857 16.122437 2,925 51 183 -1344
2021-06-25 11:46:07 GMT 43.437149 16.115921 3,100 51 182 -1344
2021-06-25 11:45:55 GMT 43.431198 16.105574 3,300 52 184 -1344
We lost coverage of the aircraft here for a total of 10 minutes
2021-06-25 11:35:28 GMT 44.064720 15.932203 18,100 179 281 -1408
2021-06-25 11:35:16 GMT 44.080170 15.931900 18,375 179 281 -1408
2021-06-25 11:35:08 GMT 44.089783 15.931645 18,550 178 282 -1344
2021-06-25 11:34:59 GMT 44.102737 15.931389 18,775 179 284 -1344
2021-06-25 11:34:48 GMT 44.116158 15.931026 19,000 178 286 -1408
2021-06-25 11:34:38 GMT 44.130066 15.930751 19,250 179 287 -1408
2021-06-25 11:34:27 GMT 44.144028 15.930495 19,475 179 287 -1408
2021-06-25 11:34:17 GMT 44.158493 15.930304 19,725 179 287 -1344
2021-06-25 11:34:13 GMT 44.163548 15.930176 19,825 179 287 -1344
2021-06-25 11:34:08 GMT 44.170158 15.930110 19,925 179 287 -1344
2021-06-25 11:34:03 GMT 44.177490 15.929920 20,050 179 288 -1408
2021-06-25 11:33:54 GMT 44.188549 15.929718 20,250 179 289 -1408
2021-06-25 11:33:44 GMT 44.202209 15.929391 20,500 178 290 -1472
2021-06-25 11:33:36 GMT 44.212662 15.929104 20,675 179 290 -1408
2021-06-25 11:33:32 GMT 44.217876 15.928970 20,775 179 291 -1408
2021-06-25 11:33:28 GMT 44.223816 15.928868 20,875 179 291 -1408
2021-06-25 11:33:22 GMT 44.232307 15.928702 21,025 179 292 -1408
2021-06-25 11:33:15 GMT 44.240406 15.928501 21,175 179 293 -1408
2021-06-25 11:33:12 GMT 44.244598 15.928367 21,250 179 293 -1408
2021-06-25 11:33:08 GMT 44.250046 15.928279 21,350 179 293 -1408
2021-06-25 11:33:02 GMT 44.258148 15.928083 21,475 179 294 -1408
2021-06-25 11:32:58 GMT 44.264008 15.927952 21,575 179 294 -1408
2021-06-25 11:32:51 GMT 44.273804 15.927756 21,750 179 294 -1344
2021-06-25 11:32:43 GMT 44.285004 15.927563 21,925 179 296 -1344
2021-06-25 11:32:39 GMT 44.289917 15.927495 22,025 179 301 -1408
2021-06-25 11:32:33 GMT 44.299667 15.927295 22,175 179 297 -1344
2021-06-25 11:32:25 GMT 44.309586 15.927094 22,325 179 299 -1344
2021-06-25 11:32:21 GMT 44.315079 15.926960 22,425 179 299 -1344
2021-06-25 11:32:11 GMT 44.328529 15.926692 22,650 179 300 -1408
2021-06-25 11:32:05 GMT 44.338394 15.926448 22,800 179 301 -1408
2021-06-25 11:31:59 GMT 44.345058 15.926357 22,925 179 301 -1408
2021-06-25 11:31:52 GMT 44.356182 15.926089 23,100 179 301 -1408
2021-06-25 11:31:41 GMT 44.370426 15.925754 23,350 179 302 -1408
2021-06-25 11:31:29 GMT 44.387146 15.925467 23,625 179 302 -1408
2021-06-25 11:31:20 GMT 44.399708 15.925286 23,850 179 302 -1344
2021-06-25 11:31:09 GMT 44.415302 15.925018 24,100 179 302 -1408
2021-06-25 11:31:00 GMT 44.427036 15.924750 24,375 179 302 -1408
2021-06-25 11:30:54 GMT 44.436253 15.924549 24,450 179 303 -1408
2021-06-25 11:30:49 GMT 44.443268 15.924421 24,575 178 303 -1408
2021-06-25 11:30:41 GMT 44.458694 15.923963 24,725 179 306 -1408
2021-06-25 11:30:38 GMT 44.458694 15.923963 24,850 179 305 -1408
2021-06-25 11:30:28 GMT 44.472107 15.923702 25,050 179 306 -1408
2021-06-25 11:30:20 GMT 44.484421 15.923375 25,275 178 307 -1408
2021-06-25 11:30:17 GMT 44.486984 15.923309 25,325 179 306 -1472
2021-06-25 11:30:06 GMT 44.503845 15.922941 25,600 179 307 -1472
2021-06-25 11:30:01 GMT 44.510788 15.922852 25,725 179 308 -1472
2021-06-25 11:29:57 GMT 44.516647 15.922786 25,825 179 308 -1472
2021-06-25 11:29:49 GMT 44.527309 15.922539 26,025 179 309 -1408
2021-06-25 11:29:46 GMT 44.531342 15.922459 26,050 179 310 -1408
2021-06-25 11:29:41 GMT 44.539078 15.922328 26,225 179 311 -1344
2021-06-25 11:29:38 GMT 44.545670 15.922132 26,300 179 311 -1344
2021-06-25 11:29:32 GMT 44.553589 15.922001 26,675 179 312 -1344
2021-06-25 11:29:28 GMT 44.558075 15.921871 26,500 179 312 -1344
2021-06-25 11:29:25 GMT 44.562698 15.921740 26,575 179 313 -1344
2021-06-25 11:29:21 GMT 44.568604 15.921609 26,675 179 313 -1344
2021-06-25 11:29:17 GMT 44.573257 15.921534 26,725 179 314 -1408
2021-06-25 11:29:14 GMT 44.577446 15.921467 26,800 179 314 -1408
2021-06-25 11:29:07 GMT 44.589844 15.921217 27,000 179 316 -1280
2021-06-25 11:29:04 GMT 44.592484 15.921199 27,025 179 317 -1280
2021-06-25 11:28:57 GMT 44.603302 15.921021 27,200 179 318 -1664
2021-06-25 11:28:53 GMT 44.608017 15.921021 27,300 179 318 -2240
2021-06-25 11:28:47 GMT 44.618134 15.920628 27,800 176 318 -2368
2021-06-25 11:28:43 GMT 44.623718 15.920060 27,700 173 318 -2112
2021-06-25 11:28:40 GMT 44.628708 15.919255 27,925 173 318 -2112
2021-06-25 11:28:37 GMT 44.633678 15.918453 27,950 173 318 -2112
2021-06-25 11:28:36 GMT 44.633678 15.918453 27,950 173 318 -1920
2021-06-25 11:28:32 GMT 44.639511 15.917489 28,075 173 318 -1472
2021-06-25 11:28:31 GMT 44.640804 15.917247 28,100 173 318 -960
2021-06-25 11:28:30 GMT 44.642433 15.916979 28,125 173 318 -960
2021-06-25 11:28:28 GMT 44.645321 15.916510 28,150 173 318 -960
2021-06-25 11:28:25 GMT 44.649834 15.915773 28,250 173 318 -960
2021-06-25 11:28:22 GMT 44.654396 15.915036 28,250 173 318 -960
2021-06-25 11:28:20 GMT 44.657421 15.914500 28,275 173 318 -960
2021-06-25 11:28:16 GMT 44.663986 15.913428 28,425 173 318 -960
2021-06-25 11:28:12 GMT 44.668968 15.912557 28,425 173 318 -960
2021-06-25 11:28:09 GMT 44.672333 15.912061 28,550 173 320 -1024
2021-06-25 11:28:05 GMT 44.679440 15.910883 28,600 173 318 -960
2021-06-25 11:27:59 GMT 44.687634 15.909543 28,850 173 320 -1024
2021-06-25 11:27:55 GMT 44.694199 15.908471 28,700 173 318 -960
2021-06-25 11:27:50 GMT 44.700943 15.907418 28,875 173 319 -1024
2021-06-25 11:27:45 GMT 44.707947 15.906241 28,850 173 320 -1024
2021-06-25 11:27:40 GMT 44.715134 15.905064 29,650 173 331 -1088
2021-06-25 11:27:36 GMT 44.730976 15.902509 29,125 173 323 -1024
2021-06-25 11:27:30 GMT 44.730976 15.902509 29,250 173 324 -1088
2021-06-25 11:27:27 GMT 44.733906 15.901973 29,250 173 324 -1088
2021-06-25 11:27:23 GMT 44.740334 15.900968 29,250 173 324 -1088
2021-06-25 11:27:20 GMT 44.744659 15.900231 29,300 173 329 -1088
2021-06-25 11:27:19 GMT 44.747780 15.899762 29,325 173 329 -1088
2021-06-25 11:27:17 GMT 44.751984 15.899113 29,375 173 329 -1088
2021-06-25 11:27:14 GMT 44.753971 15.898758 29,400 173 329 -1088
2021-06-25 11:27:09 GMT 44.763611 15.897217 29,750 173 329 -1088
2021-06-25 11:27:04 GMT 44.770248 15.896105 29,750 173 334 -1088
2021-06-25 11:27:00 GMT 44.775898 15.895207 29,750 173 334 -1088
2021-06-25 11:26:52 GMT 44.786556 15.893465 29,775 173 334 -1088
2021-06-25 11:26:50 GMT 44.789352 15.892996 29,825 173 336 -1152
2021-06-25 11:26:47 GMT 44.795471 15.891985 29,875 173 336 -1152
2021-06-25 11:26:44 GMT 44.802155 15.890853 29,975 173 337 -1152
2021-06-25 11:26:40 GMT 44.810394 15.889446 30,325 173 344 -1152
2021-06-25 11:26:37 GMT 44.810394 15.889446 30,050 173 340 -1152
2021-06-25 11:26:33 GMT 44.817608 15.888240 30,150 173 342 -1152
2021-06-25 11:26:28 GMT 44.825500 15.886950 30,250 173 345 -1152
2021-06-25 11:26:24 GMT 44.831852 15.885829 30,375 173 348 -1152
2021-06-25 11:26:17 GMT 44.844189 15.883819 31,675 173 361 -1024
2021-06-25 11:26:14 GMT 44.847885 15.883157 30,525 173 352 -1152
2021-06-25 11:26:11 GMT 44.852104 15.882479 30,575 173 353 -1088
2021-06-25 11:26:07 GMT 44.858574 15.881407 30,650 173 354 -1152
2021-06-25 11:26:02 GMT 44.867188 15.879933 30,925 173 356 -1152
2021-06-25 11:25:57 GMT 44.874115 15.878841 30,925 173 358 -1152
2021-06-25 11:25:54 GMT 44.880501 15.877723 31,675 173 361 -1024
2021-06-25 11:25:51 GMT 44.893616 15.875571 30,975 173 360 -1088
2021-06-25 11:25:46 GMT 44.893616 15.875571 31,050 173 362 -1024
2021-06-25 11:25:40 GMT 44.903229 15.873871 31,150 173 362 -1024
2021-06-25 11:25:36 GMT 44.913712 15.872105 31,250 173 361 -960
2021-06-25 11:25:30 GMT 44.919708 15.871124 31,325 173 361 -960
2021-06-25 11:25:26 GMT 44.926849 15.869882 31,375 173 361 -1024
2021-06-25 11:25:21 GMT 44.934128 15.868679 31,450 173 361 -1024
2021-06-25 11:25:16 GMT 44.943604 15.867004 31,550 173 361 -1024
2021-06-25 11:25:12 GMT 44.951569 15.865631 32,075 181 353 -960
2021-06-25 11:25:07 GMT 44.957870 15.864660 31,700 175 359 -960
2021-06-25 11:25:04 GMT 44.962200 15.864124 31,750 179 355 -960
2021-06-25 11:25:01 GMT 44.967648 15.863655 31,800 178 357 -960
2021-06-25 11:24:54 GMT 44.981285 15.863521 31,925 181 353 -960
2021-06-25 11:24:51 GMT 44.998417 15.863655 32,125 181 354 -960
2021-06-25 11:24:43 GMT 44.998417 15.863655 32,100 181 353 -960
2021-06-25 11:24:40 GMT 45.002335 15.863669 32,175 181 353 -960
2021-06-25 11:24:37 GMT 45.009384 15.863735 32,200 181 353 -896
2021-06-25 11:24:34 GMT 45.012615 15.863789 32,275 181 353 -896
2021-06-25 11:24:30 GMT 45.019318 15.863856 32,275 181 353 -896
2021-06-25 11:24:24 GMT 45.027924 15.863996 32,350 181 352 -896
2021-06-25 11:24:21 GMT 45.032959 15.864062 33,000 181 350 -896
2021-06-25 11:24:18 GMT 45.040237 15.864192 33,000 181 350 -896
2021-06-25 11:24:13 GMT 45.051819 15.864454 33,000 181 343 -1088
2021-06-25 11:24:09 GMT 45.051819 15.864454 32,600 181 345 -1024
2021-06-25 11:24:04 GMT 45.060936 15.864593 32,700 181 343 -1088
2021-06-25 11:24:00 GMT 45.072784 15.864846 32,775 181 342 -1152
2021-06-25 11:23:52 GMT 45.080383 15.864977 32,925 181 342 -960
2021-06-25 11:23:48 GMT 45.085423 15.865062 33,000 181 344 0
2021-06-25 11:23:43 GMT 45.095078 15.865173 33,000 181 342 0
2021-06-25 11:23:39 GMT 45.100296 15.865239 33,000 181 344 0
2021-06-25 11:23:33 GMT 45.109955 15.865370 33,000 181 343 0
2021-06-25 11:23:30 GMT 45.116474 15.865464 33,000 181 344 0
2021-06-25 11:23:22 GMT 45.126297 15.865598 33,000 181 344 0
2021-06-25 11:23:19 GMT 45.132339 15.865631 33,000 181 344 -64
2021-06-25 11:23:15 GMT 45.138866 15.865732 33,000 181 344 0
2021-06-25 11:23:12 GMT 45.145065 15.865827 33,000 181 344 0
2021-06-25 11:23:09 GMT 45.148594 15.865866 33,000 181 344 0
2021-06-25 11:23:05 GMT 45.155903 15.865933 33,000 181 344 0
2021-06-25 11:23:02 GMT 45.159069 15.865933 33,000 181 344 0
2021-06-25 11:22:59 GMT 45.164005 15.866000 33,025 181 344 0
2021-06-25 11:22:56 GMT 45.168613 15.866067 33,025 181 344 0
2021-06-25 11:22:51 GMT 45.176743 15.866154 33,000 181 344 64
2021-06-25 11:22:47 GMT 45.182922 15.866285 33,000 181 344 0
2021-06-25 11:22:44 GMT 45.187046 15.866334 33,000 181 344 0
2021-06-25 11:22:41 GMT 45.192490 15.866416 33,000 181 344 64
2021-06-25 11:22:38 GMT 45.198498 15.866468 33,000 181 344 0
2021-06-25 11:22:34 GMT 45.202782 15.866535 33,000 181 344 64
2021-06-25 11:22:31 GMT 45.209625 15.866669 33,000 181 344 64
2021-06-25 11:22:28 GMT 45.213409 15.866677 33,000 181 344 64
2021-06-25 11:22:23 GMT 45.220871 15.866808 33,000 181 344 0
2021-06-25 11:22:20 GMT 45.225639 15.866937 33,000 181 344 0
2021-06-25 11:22:17 GMT 45.229797 15.867004 33,000 181 344 0
2021-06-25 11:22:13 GMT 45.237091 15.867138 33,000 181 344 0
2021-06-25 11:22:10 GMT 45.241371 15.867205 33,000 181 344 0
2021-06-25 11:22:07 GMT 45.245377 15.867272 33,000 181 344 64
2021-06-25 11:22:01 GMT 45.256176 15.867473 33,000 181 344 64
2021-06-25 11:21:59 GMT 45.259342 15.867540 33,000 181 344 64
2021-06-25 11:21:56 GMT 45.264130 15.867593 33,000 181 344 64
2021-06-25 11:21:51 GMT 45.278275 15.867855 32,975 181 345 64
2021-06-25 11:21:47 GMT 45.278275 15.867855 33,000 181 344 64
2021-06-25 11:21:42 GMT 45.287018 15.868051 32,975 181 345 64
2021-06-25 11:21:39 GMT 45.290207 15.868076 32,975 181 345 64
2021-06-25 11:21:37 GMT 45.294342 15.868182 32,975 181 345 64
2021-06-25 11:21:33 GMT 45.302170 15.868277 32,975 181 349 0
2021-06-25 11:21:30 GMT 45.306976 15.868378 32,975 181 349 0
2021-06-25 11:21:27 GMT 45.310547 15.868443 32,975 181 349 -64
2021-06-25 11:21:20 GMT 45.322842 15.868545 33,000 181 352 -128
2021-06-25 11:21:15 GMT 45.329170 15.868612 33,000 181 353 -64
2021-06-25 11:21:12 GMT 45.334717 15.868705 33,000 181 355 -64
2021-06-25 11:21:08 GMT 45.341125 15.868705 32,975 181 367 -64
2021-06-25 11:21:05 GMT 45.345612 15.868770 32,975 181 373 0
2021-06-25 11:21:01 GMT 45.352203 15.868770 32,975 181 366 -64
2021-06-25 11:20:58 GMT 45.357101 15.868835 32,975 181 370 -64
2021-06-25 11:20:55 GMT 45.362225 15.868813 32,975 181 373 0
2021-06-25 11:20:52 GMT 45.369347 15.868880 32,975 181 376 -64
2021-06-25 11:20:49 GMT 45.372978 15.868947 32,975 181 381 -64
2021-06-25 11:20:47 GMT 45.375771 15.868947 33,000 181 381 -64
2021-06-25 11:20:44 GMT 45.381912 15.869032 33,000 181 379 0
2021-06-25 11:20:41 GMT 45.386662 15.869081 33,000 181 381 0
2021-06-25 11:20:38 GMT 45.398254 15.869228 33,000 181 380 0
2021-06-25 11:20:35 GMT 45.398254 15.869228 33,000 181 380 0
2021-06-25 11:20:29 GMT 45.409012 15.869359 33,000 181 380 0
2021-06-25 11:20:26 GMT 45.414780 15.869424 33,000 181 379 0
2021-06-25 11:20:24 GMT 45.416363 15.869483 33,000 181 379 0
2021-06-25 11:20:21 GMT 45.423019 15.869550 33,000 181 379 0
2021-06-25 11:20:18 GMT 45.426682 15.869620 33,000 181 379 0
2021-06-25 11:20:16 GMT 45.431957 15.869684 33,000 181 379 0
2021-06-25 11:20:10 GMT 45.441925 15.869816 33,000 181 379 64
2021-06-25 11:20:05 GMT 45.450348 15.869952 33,000 181 379 0
2021-06-25 11:20:00 GMT 45.458542 15.870078 33,000 181 379 64
2021-06-25 11:19:57 GMT 45.464676 15.870143 33,000 181 379 0
2021-06-25 11:19:55 GMT 45.468338 15.870209 33,000 181 378 0
2021-06-25 11:19:53 GMT 45.471863 15.870274 33,000 181 378 0
2021-06-25 11:19:50 GMT 45.478836 15.870354 33,000 181 378 0
2021-06-25 11:19:47 GMT 45.482887 15.870421 33,000 181 378 0
2021-06-25 11:19:43 GMT 45.488983 15.870555 33,000 181 378 0
2021-06-25 11:19:38 GMT 45.497738 15.870689 33,000 181 378 0
2021-06-25 11:19:35 GMT 45.501926 15.870823 33,000 181 378 0
2021-06-25 11:19:33 GMT 45.506790 15.870863 33,000 181 378 0
2021-06-25 11:19:29 GMT 45.512558 15.870993 33,000 181 378 0
2021-06-25 11:19:26 GMT 45.518871 15.871091 33,000 181 378 -64
2021-06-25 11:19:22 GMT 45.525146 15.871190 33,000 181 378 -64
2021-06-25 11:19:18 GMT 45.533211 15.871292 33,000 181 378 -64
2021-06-25 11:19:14 GMT 45.540005 15.871426 33,025 181 378 0
2021-06-25 11:19:10 GMT 45.555183 15.871605 33,000 181 377 0
2021-06-25 11:19:06 GMT 45.555183 15.871605 33,025 181 377 0
2021-06-25 11:19:03 GMT 45.558811 15.871674 33,000 181 377 0
2021-06-25 11:18:59 GMT 45.565475 15.871761 33,000 181 377 0
2021-06-25 11:18:54 GMT 45.573803 15.871880 33,000 181 377 0
2021-06-25 11:18:51 GMT 45.579941 15.871962 33,000 181 377 0
2021-06-25 11:18:46 GMT 45.589142 15.872096 33,000 181 377 0
2021-06-25 11:18:44 GMT 45.593491 15.872163 33,000 181 377 0
2021-06-25 11:18:39 GMT 45.601177 15.872223 33,000 181 377 0
2021-06-25 11:18:36 GMT 45.604809 15.872292 33,000 181 377 0
2021-06-25 11:18:33 GMT 45.611931 15.872360 33,000 181 377 0
2021-06-25 11:18:30 GMT 45.620632 15.872498 33,000 181 376 0
2021-06-25 11:18:27 GMT 45.629154 15.872566 33,000 181 376 0
2021-06-25 11:18:23 GMT 45.629154 15.872566 33,000 181 376 0
2021-06-25 11:18:17 GMT 45.638031 15.872699 33,000 181 376 0
2021-06-25 11:18:13 GMT 45.647095 15.872833 33,000 181 376 0
2021-06-25 11:18:09 GMT 45.652103 15.872910 33,000 181 376 0
2021-06-25 11:18:06 GMT 45.660110 15.873047 33,000 181 376 0
2021-06-25 11:18:02 GMT 45.666210 15.873116 33,000 181 374 0
2021-06-25 11:17:58 GMT 45.672958 15.873184 33,000 181 376 0
2021-06-25 11:17:55 GMT 45.677124 15.873234 33,000 181 375 0
2021-06-25 11:17:52 GMT 45.682526 15.873301 33,000 181 375 0
2021-06-25 11:17:48 GMT 45.689621 15.873435 33,000 181 375 0
2021-06-25 11:17:45 GMT 45.694466 15.873528 33,000 181 375 0
2021-06-25 11:17:42 GMT 45.700191 15.873596 33,000 181 375 0
2021-06-25 11:17:38 GMT 45.706944 15.873665 33,000 181 374 0
2021-06-25 11:17:35 GMT 45.713879 15.873802 33,000 181 375 0
2021-06-25 11:17:32 GMT 45.717178 15.873837 33,000 181 374 0
2021-06-25 11:17:28 GMT 45.731010 15.874008 33,000 181 374 0
2021-06-25 11:17:25 GMT 45.731010 15.874008 33,000 181 373 0
2021-06-25 11:17:22 GMT 45.734619 15.874038 33,000 181 374 0
2021-06-25 11:17:17 GMT 45.742584 15.874172 33,000 181 374 0
2021-06-25 11:17:12 GMT 45.752792 15.874306 33,000 181 374 0
2021-06-25 11:17:08 GMT 45.760197 15.874420 33,000 181 374 -64
2021-06-25 11:17:04 GMT 45.766434 15.874507 33,000 181 373 0
2021-06-25 11:17:00 GMT 45.772629 15.874557 33,000 181 373 0
2021-06-25 11:16:57 GMT 45.777786 15.874641 33,000 181 373 0
2021-06-25 11:16:54 GMT 45.783337 15.874695 33,000 181 373 0
2021-06-25 11:16:52 GMT 45.786575 15.874775 33,000 181 373 0
2021-06-25 11:16:49 GMT 45.791759 15.874832 33,000 181 373 0
2021-06-25 11:16:45 GMT 45.798843 15.874909 33,000 181 373 0
2021-06-25 11:16:41 GMT 45.805725 15.874969 33,000 181 373 0
2021-06-25 11:16:36 GMT 45.814041 15.875110 33,000 181 373 0
2021-06-25 11:16:33 GMT 45.820038 15.875177 33,000 181 373 0
2021-06-25 11:16:30 GMT 45.823509 15.875244 33,000 181 373 0
2021-06-25 11:16:27 GMT 45.830257 15.875313 33,000 181 373 0
2021-06-25 11:16:24 GMT 45.840595 15.875519 33,000 181 374 0
2021-06-25 11:16:21 GMT 45.840595 15.875519 33,000 181 374 0
2021-06-25 11:16:16 GMT 45.848370 15.875587 33,000 181 374 64
2021-06-25 11:16:13 GMT 45.854046 15.875725 33,000 181 375 0
2021-06-25 11:16:09 GMT 45.859402 15.875793 33,000 181 374 64
2021-06-25 11:16:05 GMT 45.867004 15.875914 33,000 181 374 64
2021-06-25 11:16:00 GMT 45.876205 15.876115 33,000 181 375 0
2021-06-25 11:15:56 GMT 45.882248 15.876182 33,000 181 375 0
2021-06-25 11:15:52 GMT 45.889706 15.876274 33,000 181 376 0
2021-06-25 11:15:49 GMT 45.894196 15.876383 33,000 181 375 0
2021-06-25 11:15:44 GMT 45.903442 15.876517 33,000 181 376 0
2021-06-25 11:15:41 GMT 45.908478 15.876584 33,000 181 376 0
2021-06-25 11:15:38 GMT 45.915031 15.876686 33,000 181 376 0
2021-06-25 11:15:35 GMT 45.920944 15.876755 33,000 181 376 -64
2021-06-25 11:15:32 GMT 45.925133 15.876823 33,000 181 376 -64
2021-06-25 11:15:29 GMT 45.929462 15.876892 33,000 181 377 0
2021-06-25 11:15:25 GMT 45.935886 15.876961 33,000 181 376 -64
2021-06-25 11:15:22 GMT 45.943893 15.877098 33,000 181 377 0
2021-06-25 11:15:19 GMT 45.947384 15.877098 33,000 181 376 0
2021-06-25 11:15:16 GMT 45.953293 15.877187 33,000 181 378 0
2021-06-25 11:15:12 GMT 45.958328 15.877254 33,000 181 377 0
2021-06-25 11:15:09 GMT 45.965469 15.877321 33,000 181 377 0
2021-06-25 11:15:05 GMT 45.971420 15.877455 33,000 181 377 0
2021-06-25 11:15:01 GMT 45.978882 15.877522 33,000 181 377 0
2021-06-25 11:14:58 GMT 45.983597 15.877589 33,000 181 378 0
2021-06-25 11:14:54 GMT 45.989841 15.877647 33,000 181 377 64
2021-06-25 11:14:51 GMT 45.997196 15.877785 33,000 181 378 0
2021-06-25 11:14:48 GMT 46.000313 15.877853 33,000 181 378 0
2021-06-25 11:14:44 GMT 46.008369 15.877922 33,000 181 378 0
2021-06-25 11:14:41 GMT 46.019169 15.878059 33,000 181 378 0
2021-06-25 11:14:38 GMT 46.019169 15.878059 33,000 181 378 0
2021-06-25 11:14:34 GMT 46.032993 15.878265 33,000 181 379 0
2021-06-25 11:14:31 GMT 46.032993 15.878265 33,000 181 379 0
2021-06-25 11:14:28 GMT 46.036671 15.878334 33,000 181 379 0
2021-06-25 11:14:25 GMT 46.042442 15.878403 33,000 181 379 -64
2021-06-25 11:14:21 GMT 46.048588 15.878540 33,000 181 379 -64
2021-06-25 11:14:18 GMT 46.055943 15.878609 33,000 181 379 -64
2021-06-25 11:14:14 GMT 46.060509 15.878677 33,000 181 379 -64
2021-06-25 11:14:10 GMT 46.067688 15.878795 33,000 181 379 -64
2021-06-25 11:14:06 GMT 46.074703 15.878952 33,000 181 379 -64
2021-06-25 11:14:03 GMT 46.079082 15.879021 33,000 181 379 0
2021-06-25 11:13:59 GMT 46.086090 15.879063 33,000 181 379 0
2021-06-25 11:13:56 GMT 46.091698 15.879158 33,000 181 379 0
2021-06-25 11:13:52 GMT 46.099564 15.879295 33,000 181 380 0
2021-06-25 11:13:49 GMT 46.104267 15.879364 33,000 181 379 0
2021-06-25 11:13:46 GMT 46.108643 15.879433 33,000 181 379 0
2021-06-25 11:13:43 GMT 46.113739 15.879464 33,000 181 379 0
2021-06-25 11:13:40 GMT 46.120377 15.879598 33,000 181 379 0
2021-06-25 11:13:36 GMT 46.127243 15.879665 33,000 181 379 0
2021-06-25 11:13:33 GMT 46.131268 15.879707 33,000 181 379 0
2021-06-25 11:13:27 GMT 46.142990 15.879866 33,000 181 380 0
2021-06-25 11:13:24 GMT 46.149857 15.880000 33,000 181 380 0
2021-06-25 11:13:19 GMT 46.156677 15.880067 33,000 181 380 0
2021-06-25 11:13:16 GMT 46.162643 15.880188 33,000 181 380 64
2021-06-25 11:13:12 GMT 46.167938 15.880201 33,000 181 380 64
2021-06-25 11:13:09 GMT 46.175308 15.880335 33,000 181 380 0
2021-06-25 11:13:05 GMT 46.181263 15.880394 33,000 181 380 0
2021-06-25 11:13:02 GMT 46.185654 15.880469 33,000 181 381 0
2021-06-25 11:12:58 GMT 46.193207 15.880536 33,000 181 381 0
2021-06-25 11:12:55 GMT 46.199745 15.880669 33,000 181 381 0
2021-06-25 11:12:52 GMT 46.210464 15.880737 33,000 181 381 0
2021-06-25 11:12:48 GMT 46.210464 15.880737 33,000 181 381 0
2021-06-25 11:12:45 GMT 46.217525 15.880875 33,000 181 382 0
2021-06-25 11:12:41 GMT 46.224243 15.880938 33,000 181 383 0
2021-06-25 11:12:36 GMT 46.232006 15.881012 33,000 181 383 0
2021-06-25 11:12:33 GMT 46.239624 15.881139 33,000 181 384 0
2021-06-25 11:12:27 GMT 46.247787 15.881218 33,000 181 384 0
2021-06-25 11:12:24 GMT 46.253979 15.881287 33,000 181 385 0
2021-06-25 11:12:21 GMT 46.258446 15.881355 33,000 181 385 0
2021-06-25 11:12:18 GMT 46.265011 15.881424 33,000 181 385 0
2021-06-25 11:12:14 GMT 46.277298 15.881608 33,000 181 386 0
2021-06-25 11:12:11 GMT 46.277298 15.881608 33,000 181 386 0
2021-06-25 11:12:07 GMT 46.284943 15.881742 33,000 181 386 0
2021-06-25 11:12:04 GMT 46.291172 15.881836 33,000 181 386 0
2021-06-25 11:12:00 GMT 46.298309 15.881943 33,000 181 386 0
2021-06-25 11:11:57 GMT 46.300827 15.881943 33,000 181 386 0
2021-06-25 11:11:54 GMT 46.308472 15.882077 33,000 181 386 0
2021-06-25 11:11:50 GMT 46.314541 15.882179 33,000 181 386 64
2021-06-25 11:11:46 GMT 46.326874 15.882345 33,000 181 386 0
2021-06-25 11:11:43 GMT 46.326874 15.882345 33,000 181 386 0
2021-06-25 11:11:40 GMT 46.332558 15.882454 33,000 181 387 -64
2021-06-25 11:11:37 GMT 46.338097 15.882591 33,000 181 387 -64
2021-06-25 11:11:34 GMT 46.348297 15.882747 33,000 181 387 -64
2021-06-25 11:11:31 GMT 46.348297 15.882747 33,000 181 387 -64
2021-06-25 11:11:28 GMT 46.353645 15.882866 33,000 181 387 -64
2021-06-25 11:11:24 GMT 46.359882 15.883003 33,000 181 387 -64
2021-06-25 11:11:21 GMT 46.366867 15.883141 33,050 181 383 -1024
2021-06-25 11:11:17 GMT 46.374176 15.883209 33,000 181 387 0
2021-06-25 11:11:13 GMT 46.382416 15.883347 33,000 181 387 0
2021-06-25 11:11:10 GMT 46.386700 15.883415 33,000 181 387 0
2021-06-25 11:11:07 GMT 46.391167 15.883484 33,000 181 387 0
2021-06-25 11:11:04 GMT 46.396545 15.883551 33,000 181 387 0
2021-06-25 11:11:01 GMT 46.402405 15.883618 33,000 181 387 0
2021-06-25 11:10:57 GMT 46.408485 15.883759 33,000 181 387 0
2021-06-25 11:10:54 GMT 46.421005 15.883965 33,000 181 387 0
2021-06-25 11:10:51 GMT 46.421005 15.883965 33,000 181 387 0
2021-06-25 11:10:48 GMT 46.425476 15.884033 33,000 181 387 0
2021-06-25 11:10:45 GMT 46.430145 15.884087 33,000 181 387 0
2021-06-25 11:10:42 GMT 46.436184 15.884171 33,000 181 387 -64
2021-06-25 11:10:39 GMT 46.442467 15.884308 33,000 181 387 0
2021-06-25 11:10:35 GMT 46.449078 15.884445 33,000 181 387 -64
2021-06-25 11:10:32 GMT 46.453171 15.884489 33,000 181 386 -64
2021-06-25 11:10:29 GMT 46.466217 15.884757 33,000 181 385 -64
2021-06-25 11:10:26 GMT 46.466217 15.884757 33,000 181 386 -64
2021-06-25 11:10:21 GMT 46.474403 15.884926 33,000 181 385 -64
2021-06-25 11:10:18 GMT 46.479721 15.885025 33,025 181 385 -64
2021-06-25 11:10:15 GMT 46.484364 15.885063 33,025 181 384 -64
2021-06-25 11:10:12 GMT 46.489655 15.885159 33,025 181 384 0
2021-06-25 11:10:08 GMT 46.496750 15.885269 33,000 181 381 0
2021-06-25 11:10:05 GMT 46.501694 15.885360 33,000 181 381 0
2021-06-25 11:10:00 GMT 46.509842 15.885494 33,000 181 382 0
2021-06-25 11:09:57 GMT 46.515839 15.885561 33,000 181 381 0
2021-06-25 11:09:54 GMT 46.521095 15.885612 33,000 181 381 0
2021-06-25 11:09:51 GMT 46.527786 15.885762 33,000 181 381 0
2021-06-25 11:09:48 GMT 46.534130 15.885818 33,000 181 380 64
2021-06-25 11:09:45 GMT 46.537628 15.885829 33,000 181 380 0
2021-06-25 11:09:40 GMT 46.545719 15.885887 33,000 181 381 0
2021-06-25 11:09:37 GMT 46.551353 15.885956 33,000 181 381 0
2021-06-25 11:09:34 GMT 46.556808 15.886029 33,000 181 380 64
2021-06-25 11:09:31 GMT 46.563828 15.886093 33,000 181 380 64
2021-06-25 11:09:28 GMT 46.566650 15.886163 33,000 181 381 0
2021-06-25 11:09:25 GMT 46.574203 15.886230 33,000 181 381 0
2021-06-25 11:09:22 GMT 46.578075 15.886230 33,000 181 381 0
2021-06-25 11:09:19 GMT 46.583149 15.886299 33,000 181 381 0
2021-06-25 11:09:16 GMT 46.588440 15.886364 33,000 181 381 0
2021-06-25 11:09:11 GMT 46.596725 15.886498 33,000 181 381 0
2021-06-25 11:09:08 GMT 46.602001 15.886505 33,000 181 381 0
2021-06-25 11:09:05 GMT 46.609219 15.886642 33,000 181 381 0
2021-06-25 11:09:02 GMT 46.614487 15.886699 33,000 181 381 0
2021-06-25 11:08:58 GMT 46.628586 15.886833 33,000 181 381 0
2021-06-25 11:08:54 GMT 46.628586 15.886833 33,000 181 382 0
2021-06-25 11:08:50 GMT 46.633888 15.886917 33,000 181 382 0
2021-06-25 11:08:46 GMT 46.646740 15.887054 33,000 181 382 64
2021-06-25 11:08:43 GMT 46.646740 15.887054 33,000 181 382 64
2021-06-25 11:08:39 GMT 46.654327 15.887123 33,000 181 383 -64
2021-06-25 11:08:36 GMT 46.659634 15.887192 33,000 181 383 -64
2021-06-25 11:08:33 GMT 46.663696 15.887235 33,000 181 383 -128
2021-06-25 11:08:29 GMT 46.670609 15.887302 33,025 181 382 -1024
2021-06-25 11:08:26 GMT 46.677475 15.887369 33,100 181 382 -1024
2021-06-25 11:08:23 GMT 46.681747 15.887398 33,125 181 382 -1024
2021-06-25 11:08:20 GMT 46.687042 15.887503 33,175 181 382 -1024
2021-06-25 11:08:17 GMT 46.691429 15.887535 33,325 181 382 -1024
2021-06-25 11:08:14 GMT 46.696701 15.887637 33,325 181 382 -1024
2021-06-25 11:08:11 GMT 46.703766 15.887741 33,350 181 382 -1024
2021-06-25 11:08:07 GMT 46.709061 15.887838 33,450 181 384 -960
2021-06-25 11:08:04 GMT 46.716148 15.888016 33,450 181 383 -960
2021-06-25 11:08:00 GMT 46.722153 15.888106 33,550 181 385 -960
2021-06-25 11:07:56 GMT 46.728531 15.888222 33,900 181 386 -960
2021-06-25 11:07:52 GMT 46.736725 15.888359 33,650 181 385 -960
2021-06-25 11:07:49 GMT 46.742752 15.888441 33,700 181 385 -960
2021-06-25 11:07:45 GMT 46.749153 15.888565 33,850 181 385 -960
2021-06-25 11:07:41 GMT 46.754837 15.888709 33,800 181 385 -960
2021-06-25 11:07:38 GMT 46.767868 15.888908 33,875 181 386 -960
2021-06-25 11:07:35 GMT 46.767868 15.888908 33,950 181 387 -960
2021-06-25 11:07:32 GMT 46.773560 15.889044 33,975 181 387 -960
2021-06-25 11:07:29 GMT 46.776245 15.889046 34,000 181 387 -1024
2021-06-25 11:07:26 GMT 46.783371 15.889252 34,075 181 388 -1024
2021-06-25 11:07:23 GMT 46.786789 15.889312 34,175 181 389 -960
2021-06-25 11:07:20 GMT 46.794891 15.889446 34,175 181 389 -960
2021-06-25 11:07:16 GMT 46.800964 15.889526 34,250 181 389 -960
2021-06-25 11:07:13 GMT 46.806381 15.889647 34,275 181 389 -960
2021-06-25 11:07:10 GMT 46.811920 15.889714 34,350 181 389 -960
2021-06-25 11:07:07 GMT 46.816086 15.889781 34,425 181 389 -960
2021-06-25 11:07:04 GMT 46.821262 15.889870 34,475 181 389 -1024
2021-06-25 11:07:01 GMT 46.828991 15.889938 34,475 181 389 -1024
2021-06-25 11:06:57 GMT 46.834763 15.890049 34,625 181 390 -1024
2021-06-25 11:06:54 GMT 46.839977 15.890076 34,625 181 390 -1024
2021-06-25 11:06:51 GMT 46.845192 15.890213 34,700 181 391 -1088
2021-06-25 11:06:48 GMT 46.850601 15.890250 34,725 181 391 -1088
2021-06-25 11:06:45 GMT 46.856037 15.890350 34,900 181 390 -1152
2021-06-25 11:06:42 GMT 46.861450 15.890384 34,850 181 390 -1152
2021-06-25 11:06:39 GMT 46.867401 15.890488 34,925 181 390 -1152
2021-06-25 11:06:35 GMT 46.874611 15.890597 35,000 181 391 -448
2021-06-25 11:06:32 GMT 46.879303 15.890625 35,000 181 391 -256
2021-06-25 11:06:29 GMT 46.886158 15.890738 35,000 181 391 -64
2021-06-25 11:06:26 GMT 46.891045 15.890808 35,000 181 391 0
2021-06-25 11:06:23 GMT 46.897003 15.890879 35,000 181 391 0
2021-06-25 11:06:20 GMT 46.900955 15.890968 35,000 181 391 0
2021-06-25 11:06:17 GMT 46.905663 15.891019 35,000 181 391 0
2021-06-25 11:06:15 GMT 46.909294 15.891090 35,000 181 391 64
2021-06-25 11:06:12 GMT 46.916508 15.891231 35,000 181 391 0
2021-06-25 11:06:08 GMT 46.923706 15.891312 35,000 181 391 0
2021-06-25 11:06:05 GMT 46.930241 15.891442 35,000 181 391 0
2021-06-25 11:06:00 GMT 46.937439 15.891518 35,000 181 391 -128
2021-06-25 11:05:56 GMT 46.945358 15.891655 35,000 181 391 0
2021-06-25 11:05:54 GMT 46.947701 15.891653 35,000 181 391 64
2021-06-25 11:05:50 GMT 46.955475 15.891724 35,000 181 390 -128
2021-06-25 11:05:46 GMT 46.963760 15.891861 35,000 181 390 -128
2021-06-25 11:05:43 GMT 46.967392 15.891864 35,000 181 391 0
2021-06-25 11:05:40 GMT 46.973877 15.891930 35,000 181 390 0
2021-06-25 11:05:37 GMT 46.981449 15.892076 35,000 181 390 -64
2021-06-25 11:05:34 GMT 46.983589 15.892076 35,000 181 390 0
2021-06-25 11:05:31 GMT 46.990265 15.892136 35,025 181 389 -128
2021-06-25 11:05:28 GMT 46.996765 15.892217 35,000 181 390 0
2021-06-25 11:05:24 GMT 47.002853 15.892273 35,000 181 390 0
2021-06-25 11:05:21 GMT 47.008438 15.892342 35,000 181 390 0
2021-06-25 11:05:17 GMT 47.014755 15.892410 35,000 181 389 -64
2021-06-25 11:05:14 GMT 47.022125 15.892548 35,000 181 390 -64
2021-06-25 11:05:09 GMT 47.031494 15.892639 35,000 181 389 0
2021-06-25 11:05:05 GMT 47.037598 15.892685 35,000 181 389 0
2021-06-25 11:05:02 GMT 47.042618 15.892780 35,000 181 389 0
2021-06-25 11:04:59 GMT 47.047832 15.892850 35,000 181 389 0
2021-06-25 11:04:56 GMT 47.052887 15.892891 35,000 181 389 0
2021-06-25 11:04:53 GMT 47.058426 15.892960 35,000 181 389 0
2021-06-25 11:04:49 GMT 47.066895 15.893097 35,000 181 390 0
2021-06-25 11:04:46 GMT 47.070328 15.893166 35,000 181 390 0
2021-06-25 11:04:44 GMT 47.075546 15.893234 35,000 181 390 64
2021-06-25 11:04:40 GMT 47.086349 15.893372 35,000 181 390 -64
2021-06-25 11:04:37 GMT 47.086349 15.893372 35,000 181 390 -64
2021-06-25 11:04:34 GMT 47.092800 15.893484 35,000 181 390 -64
2021-06-25 11:04:30 GMT 47.099133 15.893625 35,000 181 390 -64
2021-06-25 11:04:27 GMT 47.106117 15.893696 35,000 181 390 -64
2021-06-25 11:04:24 GMT 47.110634 15.893836 35,000 181 389 0
2021-06-25 11:04:21 GMT 47.115845 15.893907 35,000 182 389 0
2021-06-25 11:04:18 GMT 47.121597 15.894058 35,000 182 388 0
2021-06-25 11:04:15 GMT 47.126999 15.894196 35,000 181 388 0
2021-06-25 11:04:12 GMT 47.131813 15.894329 35,000 181 389 0
2021-06-25 11:04:09 GMT 47.136658 15.894333 35,000 178 390 0
2021-06-25 11:04:06 GMT 47.142609 15.894264 35,000 174 392 64
2021-06-25 11:04:03 GMT 47.149979 15.893852 35,000 176 391 64
2021-06-25 11:04:00 GMT 47.154144 15.893440 35,000 175 392 64
2021-06-25 11:03:57 GMT 47.159363 15.892891 35,000 174 392 64
2021-06-25 11:03:54 GMT 47.164635 15.892076 35,000 172 395 64
2021-06-25 11:03:51 GMT 47.171677 15.890762 35,000 171 395 0
2021-06-25 11:03:48 GMT 47.175293 15.890007 35,000 168 397 0
2021-06-25 11:03:45 GMT 47.181065 15.888484 35,000 168 398 0
2021-06-25 11:03:42 GMT 47.186462 15.886917 35,000 168 397 0
2021-06-25 11:03:39 GMT 47.191914 15.885385 35,000 168 397 0
2021-06-25 11:03:36 GMT 47.197823 15.883695 35,000 168 397 0
2021-06-25 11:03:33 GMT 47.202896 15.882248 35,000 168 397 0
2021-06-25 11:03:30 GMT 47.209534 15.880325 35,000 168 397 0
2021-06-25 11:03:26 GMT 47.214752 15.878815 35,000 169 397 0
2021-06-25 11:03:22 GMT 47.222855 15.876549 35,000 169 396 0
2021-06-25 11:03:19 GMT 47.227898 15.875174 35,000 169 395 0
2021-06-25 11:03:15 GMT 47.233658 15.873528 35,000 169 396 0
2021-06-25 11:03:12 GMT 47.240662 15.871605 35,000 169 396 0
2021-06-25 11:03:09 GMT 47.245880 15.870163 35,000 169 396 0
2021-06-25 11:03:06 GMT 47.250732 15.868790 35,000 169 396 64
2021-06-25 11:03:02 GMT 47.258297 15.866723 35,000 169 396 -64
2021-06-25 11:02:59 GMT 47.264786 15.865013 35,000 169 396 -64
2021-06-25 11:02:56 GMT 47.268211 15.864047 35,000 169 396 -64
2021-06-25 11:02:53 GMT 47.274357 15.862427 35,000 169 396 0
2021-06-25 11:02:49 GMT 47.282784 15.860103 35,000 169 396 -64
2021-06-25 11:02:46 GMT 47.286758 15.859039 35,000 169 396 -64
2021-06-25 11:02:42 GMT 47.301544 15.854988 35,000 169 396 -64
2021-06-25 11:02:39 GMT 47.301544 15.854988 35,000 169 396 -64
2021-06-25 11:02:36 GMT 47.307129 15.853477 35,000 169 396 0
2021-06-25 11:02:33 GMT 47.310902 15.852426 35,000 169 396 64
2021-06-25 11:02:29 GMT 47.318115 15.850384 35,000 169 398 0
2021-06-25 11:02:26 GMT 47.324448 15.848623 34,975 169 398 64
2021-06-25 11:02:23 GMT 47.327866 15.847641 35,000 168 398 -64
2021-06-25 11:02:20 GMT 47.334362 15.845806 34,975 169 398 -64
2021-06-25 11:02:17 GMT 47.340134 15.844139 35,000 169 398 -64
2021-06-25 11:02:14 GMT 47.343933 15.843109 35,000 168 399 0
2021-06-25 11:02:11 GMT 47.350052 15.841370 35,000 169 398 -64
2021-06-25 11:02:08 GMT 47.355125 15.839891 35,000 168 398 -64
2021-06-25 11:02:05 GMT 47.360943 15.838200 35,000 168 399 -64
2021-06-25 11:02:02 GMT 47.366364 15.836586 35,000 168 399 0
2021-06-25 11:01:58 GMT 47.374676 15.834116 35,000 168 399 0
2021-06-25 11:01:54 GMT 47.380280 15.832466 35,000 168 399 0
2021-06-25 11:01:51 GMT 47.385864 15.830887 35,000 168 400 -64
2021-06-25 11:01:48 GMT 47.392784 15.828834 35,000 168 400 0
2021-06-25 11:01:45 GMT 47.401630 15.826299 35,000 168 399 -64
2021-06-25 11:01:42 GMT 47.401630 15.826299 35,000 168 400 -64
2021-06-25 11:01:38 GMT 47.409077 15.824115 35,000 168 400 -64
2021-06-25 11:01:35 GMT 47.417038 15.821862 35,000 168 400 64
2021-06-25 11:01:32 GMT 47.420517 15.820862 35,000 168 400 128
2021-06-25 11:01:28 GMT 47.427605 15.818763 35,000 168 401 64
2021-06-25 11:01:25 GMT 47.432510 15.817360 35,000 168 401 0
2021-06-25 11:01:22 GMT 47.439056 15.815453 35,000 168 402 -64
2021-06-25 11:01:19 GMT 47.446320 15.813340 35,000 168 402 0
2021-06-25 11:01:15 GMT 47.452000 15.811721 35,000 168 402 0
2021-06-25 11:01:12 GMT 47.457458 15.810081 35,000 168 403 -64
2021-06-25 11:01:09 GMT 47.461853 15.808846 35,000 168 403 -64
2021-06-25 11:01:06 GMT 47.469177 15.806791 35,000 169 403 0
2021-06-25 11:01:02 GMT 47.477005 15.804520 35,000 169 403 64
2021-06-25 11:00:59 GMT 47.480850 15.803490 35,000 169 404 0
2021-06-25 11:00:56 GMT 47.491661 15.800453 35,000 169 404 -64
2021-06-25 11:00:53 GMT 47.491661 15.800453 35,000 169 404 -64
2021-06-25 11:00:49 GMT 47.499203 15.798340 35,000 169 403 0
2021-06-25 11:00:46 GMT 47.504509 15.796861 35,000 169 404 64
2021-06-25 11:00:43 GMT 47.510376 15.795250 35,000 169 404 0
2021-06-25 11:00:39 GMT 47.517731 15.793199 35,000 169 405 0
2021-06-25 11:00:36 GMT 47.523605 15.791542 34,975 169 405 0
2021-06-25 11:00:33 GMT 47.530014 15.789757 35,000 169 405 64
2021-06-25 11:00:29 GMT 47.538170 15.787565 35,000 169 409 0
2021-06-25 11:00:26 GMT 47.541138 15.786736 35,000 169 409 0
2021-06-25 11:00:23 GMT 47.552834 15.783410 35,000 169 410 -64
2021-06-25 11:00:20 GMT 47.552834 15.783410 35,000 169 411 -64
2021-06-25 11:00:17 GMT 47.557846 15.781998 35,000 169 412 -64
2021-06-25 11:00:14 GMT 47.563492 15.780452 35,000 169 413 0
2021-06-25 11:00:11 GMT 47.569309 15.778762 35,000 169 414 0
2021-06-25 11:00:08 GMT 47.574921 15.777191 35,000 169 415 0
2021-06-25 11:00:04 GMT 47.584347 15.774466 35,000 169 415 0
2021-06-25 11:00:01 GMT 47.588470 15.773277 35,000 169 419 0
2021-06-25 10:59:58 GMT 47.593380 15.771930 35,000 168 418 0
2021-06-25 10:59:55 GMT 47.599991 15.769958 35,000 168 416 0
2021-06-25 10:59:52 GMT 47.607010 15.767921 35,000 168 418 64
2021-06-25 10:59:49 GMT 47.609665 15.767166 35,000 168 418 64
2021-06-25 10:59:46 GMT 47.617584 15.764817 35,000 169 418 -64
2021-06-25 10:59:43 GMT 47.622707 15.763339 35,000 168 418 -64
2021-06-25 10:59:40 GMT 47.634659 15.759888 35,000 169 418 0
2021-06-25 10:59:36 GMT 47.634659 15.759888 35,000 169 417 -64
2021-06-25 10:59:33 GMT 47.643585 15.757347 35,000 169 418 -64
2021-06-25 10:59:30 GMT 47.647381 15.756296 35,000 168 418 -64
2021-06-25 10:59:27 GMT 47.654408 15.754254 35,000 168 418 -64
2021-06-25 10:59:24 GMT 47.660110 15.752609 35,000 168 418 0
2021-06-25 10:59:21 GMT 47.665070 15.751225 35,000 168 421 0
2021-06-25 10:59:18 GMT 47.670776 15.749588 35,000 169 419 0
2021-06-25 10:59:15 GMT 47.675682 15.748127 35,000 169 419 0
2021-06-25 10:59:12 GMT 47.682713 15.746155 35,000 169 419 64
2021-06-25 10:59:09 GMT 47.687119 15.744919 35,000 169 419 64
2021-06-25 10:59:06 GMT 47.693047 15.743197 35,000 169 418 64
2021-06-25 10:59:03 GMT 47.697933 15.741788 35,000 169 420 -64
2021-06-25 10:59:00 GMT 47.704266 15.740028 35,000 169 420 -64
2021-06-25 10:58:57 GMT 47.711296 15.737985 35,000 168 421 0
2021-06-25 10:58:54 GMT 47.716045 15.736577 35,000 168 421 0
2021-06-25 10:58:51 GMT 47.721039 15.735100 35,000 168 422 0
2021-06-25 10:58:48 GMT 47.727356 15.733315 35,000 168 422 0
2021-06-25 10:58:44 GMT 47.734619 15.731154 35,000 168 422 0
2021-06-25 10:58:41 GMT 47.739182 15.729746 35,000 168 422 -64
2021-06-25 10:58:38 GMT 47.747818 15.727203 35,000 168 422 -64
2021-06-25 10:58:34 GMT 47.763519 15.722603 35,000 168 423 0
2021-06-25 10:58:30 GMT 47.763519 15.722603 35,000 168 423 64
2021-06-25 10:58:27 GMT 47.768280 15.721161 35,000 168 423 64
2021-06-25 10:58:24 GMT 47.772884 15.719816 35,000 168 423 -64
2021-06-25 10:58:21 GMT 47.784760 15.716354 35,000 168 424 -64
2021-06-25 10:58:18 GMT 47.784760 15.716354 35,000 168 424 0
2021-06-25 10:58:15 GMT 47.790527 15.714675 35,000 168 424 0
2021-06-25 10:58:12 GMT 47.796295 15.712990 35,000 168 423 0
2021-06-25 10:58:09 GMT 47.803574 15.710861 35,000 168 423 0
2021-06-25 10:58:05 GMT 47.811859 15.708458 35,000 168 423 0
2021-06-25 10:58:02 GMT 47.815479 15.707421 35,000 168 423 0
2021-06-25 10:57:59 GMT 47.819530 15.706224 35,000 168 423 0
2021-06-25 10:57:56 GMT 47.827023 15.704041 35,000 168 423 0
2021-06-25 10:57:52 GMT 47.834518 15.701928 35,000 168 423 0
2021-06-25 10:57:50 GMT 47.838894 15.700590 35,000 168 424 0
2021-06-25 10:57:47 GMT 47.844315 15.699051 35,000 168 424 0
2021-06-25 10:57:44 GMT 47.849277 15.697561 35,000 168 424 0
2021-06-25 10:57:41 GMT 47.855850 15.695686 35,000 168 424 0
2021-06-25 10:57:38 GMT 47.863148 15.693547 35,000 168 424 -64
2021-06-25 10:57:35 GMT 47.867943 15.692139 35,000 168 424 0
2021-06-25 10:57:32 GMT 47.873158 15.690589 35,000 168 424 0
2021-06-25 10:57:28 GMT 47.881989 15.687996 35,000 168 424 0
2021-06-25 10:57:25 GMT 47.886795 15.686623 35,000 168 424 0
2021-06-25 10:57:22 GMT 47.892570 15.684885 35,000 168 424 64
2021-06-25 10:57:17 GMT 47.901180 15.682350 35,000 168 424 0
2021-06-25 10:57:14 GMT 47.906395 15.680800 35,000 168 424 0
2021-06-25 10:57:11 GMT 47.912155 15.679070 35,000 168 424 0
2021-06-25 10:57:07 GMT 47.919849 15.676786 35,000 168 425 64
2021-06-25 10:57:04 GMT 47.927345 15.674532 35,000 168 425 64
2021-06-25 10:57:01 GMT 47.932140 15.673124 35,000 168 425 0
2021-06-25 10:56:58 GMT 47.939072 15.671104 35,000 168 425 0
2021-06-25 10:56:54 GMT 47.945801 15.669113 35,000 168 425 -64
2021-06-25 10:56:51 GMT 47.951797 15.667328 35,000 168 425 0
2021-06-25 10:56:47 GMT 47.960861 15.664673 35,000 169 424 64
2021-06-25 10:56:44 GMT 47.965302 15.663345 35,000 169 425 -64
2021-06-25 10:56:41 GMT 47.971058 15.661715 35,000 169 425 0
2021-06-25 10:56:38 GMT 47.976837 15.659981 35,000 169 425 0
2021-06-25 10:56:35 GMT 47.984184 15.657912 35,000 169 425 0
2021-06-25 10:56:32 GMT 47.989399 15.656363 35,000 169 425 0
2021-06-25 10:56:29 GMT 47.994240 15.654954 35,000 169 425 0
2021-06-25 10:56:26 GMT 48.001923 15.652771 35,000 169 425 0
2021-06-25 10:56:23 GMT 48.007366 15.651151 35,000 169 425 0
2021-06-25 10:56:20 GMT 48.010998 15.650095 35,000 169 425 0
2021-06-25 10:56:16 GMT 48.020496 15.647348 35,000 168 425 -64
2021-06-25 10:56:13 GMT 48.023575 15.646454 35,000 168 425 -64
2021-06-25 10:56:10 GMT 48.032040 15.644038 35,000 169 424 0
2021-06-25 10:56:07 GMT 48.036465 15.642700 35,000 169 424 0
2021-06-25 10:56:03 GMT 48.044376 15.640447 35,000 169 425 0
2021-06-25 10:56:00 GMT 48.050171 15.638763 35,000 169 425 0
2021-06-25 10:55:56 GMT 48.056713 15.636855 35,000 169 425 0
2021-06-25 10:55:53 GMT 48.064255 15.634742 35,000 169 424 0
2021-06-25 10:55:50 GMT 48.069839 15.633122 35,000 169 424 0
2021-06-25 10:55:48 GMT 48.071751 15.632559 35,000 169 424 0
2021-06-25 10:55:45 GMT 48.080246 15.630112 35,000 168 424 64
2021-06-25 10:55:42 GMT 48.090836 15.626995 35,000 168 424 64
2021-06-25 10:55:39 GMT 48.090836 15.626995 35,025 168 424 -64
2021-06-25 10:55:35 GMT 48.097588 15.625023 35,000 168 424 64
2021-06-25 10:55:32 GMT 48.103546 15.623263 35,000 168 423 128
2021-06-25 10:55:29 GMT 48.110481 15.621291 35,000 169 424 64
2021-06-25 10:55:26 GMT 48.115276 15.619882 35,000 168 424 0
2021-06-25 10:55:23 GMT 48.120861 15.618263 35,000 168 424 0
2021-06-25 10:55:20 GMT 48.132034 15.614953 35,000 168 424 0
2021-06-25 10:55:17 GMT 48.132034 15.614953 35,000 168 424 0
2021-06-25 10:55:14 GMT 48.139530 15.612769 35,000 168 424 0
2021-06-25 10:55:10 GMT 48.146851 15.610611 35,000 168 424 0
2021-06-25 10:55:07 GMT 48.153030 15.608755 35,000 168 425 0
2021-06-25 10:55:03 GMT 48.160721 15.606502 35,000 168 425 0
2021-06-25 10:55:00 GMT 48.166485 15.604778 35,000 168 425 0
2021-06-25 10:54:58 GMT 48.170162 15.603694 35,000 168 425 0
2021-06-25 10:54:55 GMT 48.175560 15.602104 35,000 168 424 0
2021-06-25 10:54:52 GMT 48.180176 15.600727 35,000 168 425 0
2021-06-25 10:54:49 GMT 48.186314 15.598851 35,000 168 425 0
2021-06-25 10:54:45 GMT 48.194046 15.596572 35,000 168 425 0
2021-06-25 10:54:42 GMT 48.200188 15.594804 35,000 168 424 0
2021-06-25 10:54:39 GMT 48.206314 15.592980 35,000 168 425 0
2021-06-25 10:54:35 GMT 48.212894 15.590973 35,000 168 424 0
2021-06-25 10:54:32 GMT 48.219227 15.589094 35,000 168 424 0
2021-06-25 10:54:29 GMT 48.224396 15.587504 35,000 168 424 0
2021-06-25 10:54:26 GMT 48.232498 15.585092 35,000 168 424 0
2021-06-25 10:54:22 GMT 48.240173 15.582733 35,000 168 424 0
2021-06-25 10:54:18 GMT 48.248043 15.580420 35,000 168 424 0
2021-06-25 10:54:15 GMT 48.252274 15.579106 35,000 168 424 64
2021-06-25 10:54:12 GMT 48.259003 15.577134 35,000 168 424 64
2021-06-25 10:54:09 GMT 48.263809 15.575655 35,000 168 424 0
2021-06-25 10:54:06 GMT 48.270538 15.573684 35,000 168 424 0
2021-06-25 10:54:03 GMT 48.275883 15.572036 35,000 168 424 0
2021-06-25 10:54:00 GMT 48.280117 15.570807 35,000 168 424 0
2021-06-25 10:53:57 GMT 48.286285 15.568965 35,000 168 424 0
2021-06-25 10:53:54 GMT 48.292778 15.567049 35,000 168 424 0
2021-06-25 10:53:50 GMT 48.300274 15.564880 35,000 168 423 -64
2021-06-25 10:53:47 GMT 48.304916 15.563542 35,000 169 423 -64
2021-06-25 10:53:43 GMT 48.313934 15.560937 35,000 169 423 -64
2021-06-25 10:53:40 GMT 48.319473 15.559317 35,000 169 423 0
2021-06-25 10:53:37 GMT 48.326019 15.557436 35,000 168 423 0
2021-06-25 10:53:34 GMT 48.338104 15.553894 35,000 168 423 0
2021-06-25 10:53:31 GMT 48.338104 15.553894 35,000 168 422 0
2021-06-25 10:53:28 GMT 48.343460 15.552345 35,000 168 422 0
2021-06-25 10:53:24 GMT 48.351154 15.550063 35,000 168 422 0
2021-06-25 10:53:20 GMT 48.358047 15.548039 35,000 168 423 64
2021-06-25 10:53:17 GMT 48.363632 15.546377 35,000 168 423 0
2021-06-25 10:53:14 GMT 48.369171 15.544715 35,000 168 423 0
2021-06-25 10:53:11 GMT 48.375874 15.542763 35,000 168 422 0
2021-06-25 10:53:08 GMT 48.380905 15.541288 35,000 168 423 0
2021-06-25 10:53:05 GMT 48.388165 15.539149 35,000 168 422 0
2021-06-25 10:53:02 GMT 48.392029 15.538065 35,000 168 423 0
2021-06-25 10:52:59 GMT 48.401779 15.535161 35,000 168 422 0
2021-06-25 10:52:57 GMT 48.401779 15.535161 35,000 168 423 0
2021-06-25 10:52:54 GMT 48.407578 15.533512 35,000 168 423 0
2021-06-25 10:52:51 GMT 48.413315 15.531781 35,000 168 422 0
2021-06-25 10:52:48 GMT 48.420238 15.529753 35,000 168 423 0
2021-06-25 10:52:45 GMT 48.426727 15.527837 35,000 168 423 0
2021-06-25 10:52:42 GMT 48.430946 15.526573 35,000 168 423 0
2021-06-25 10:52:39 GMT 48.440918 15.523611 35,000 168 423 0
2021-06-25 10:52:36 GMT 48.440918 15.523611 35,000 168 423 0
2021-06-25 10:52:32 GMT 48.450314 15.520791 35,000 168 423 0
2021-06-25 10:52:29 GMT 48.457214 15.518681 35,000 168 423 0
2021-06-25 10:52:26 GMT 48.463165 15.516921 35,000 168 423 0
2021-06-25 10:52:22 GMT 48.469894 15.514878 35,000 168 423 0
2021-06-25 10:52:19 GMT 48.476212 15.512977 35,000 168 423 0
2021-06-25 10:52:16 GMT 48.479645 15.511921 35,000 168 423 0
2021-06-25 10:52:13 GMT 48.486374 15.509878 35,000 168 423 0
2021-06-25 10:52:10 GMT 48.492489 15.507997 35,000 168 423 0
2021-06-25 10:52:07 GMT 48.498821 15.506046 35,000 168 423 0
2021-06-25 10:52:03 GMT 48.505737 15.503892 35,000 168 423 0
2021-06-25 10:52:00 GMT 48.512054 15.501920 35,000 168 423 0
2021-06-25 10:51:57 GMT 48.516861 15.500371 35,000 168 423 0
2021-06-25 10:51:54 GMT 48.524143 15.498095 35,000 168 423 64
2021-06-25 10:51:51 GMT 48.530090 15.496286 35,000 168 423 64
2021-06-25 10:51:48 GMT 48.534851 15.494843 35,000 168 424 0
2021-06-25 10:51:45 GMT 48.540066 15.493252 35,000 168 424 0
2021-06-25 10:51:41 GMT 48.553288 15.489205 35,000 168 424 0
2021-06-25 10:51:38 GMT 48.553288 15.489205 35,000 168 424 0
2021-06-25 10:51:36 GMT 48.556358 15.488265 35,000 168 424 0
2021-06-25 10:51:33 GMT 48.564598 15.485880 35,000 168 423 0
2021-06-25 10:51:30 GMT 48.570374 15.484173 35,000 168 423 -64
2021-06-25 10:51:27 GMT 48.576141 15.482483 35,000 168 423 -64
2021-06-25 10:51:24 GMT 48.587875 15.479014 35,000 168 423 -64
2021-06-25 10:51:21 GMT 48.587875 15.479014 35,000 168 423 -64
2021-06-25 10:51:18 GMT 48.592117 15.477835 35,000 168 423 0
2021-06-25 10:51:15 GMT 48.597656 15.476145 35,000 168 423 64
2021-06-25 10:51:12 GMT 48.605751 15.473809 35,000 168 423 64
2021-06-25 10:51:08 GMT 48.611897 15.472003 35,000 168 423 64
2021-06-25 10:51:06 GMT 48.614365 15.471285 35,000 168 424 -64
2021-06-25 10:51:03 GMT 48.620880 15.469328 35,000 168 424 0
2021-06-25 10:51:00 GMT 48.626652 15.467594 35,000 168 424 -64
2021-06-25 10:50:57 GMT 48.632610 15.465859 35,000 168 424 -64
2021-06-25 10:50:55 GMT 48.635498 15.464992 35,000 168 423 -64
2021-06-25 10:50:52 GMT 48.641647 15.463186 34,800 168 422 64
2021-06-25 10:50:49 GMT 48.647003 15.461567 34,975 168 423 960
2021-06-25 10:50:46 GMT 48.653320 15.459736 34,975 168 422 704
2021-06-25 10:50:43 GMT 48.666176 15.455884 34,900 168 423 960
2021-06-25 10:50:40 GMT 48.666176 15.455884 34,175 168 424 960
2021-06-25 10:50:36 GMT 48.674423 15.453468 34,825 168 424 1024
2021-06-25 10:50:33 GMT 48.679813 15.451837 34,800 168 423 896
2021-06-25 10:50:30 GMT 48.682663 15.451003 34,750 168 423 896
2021-06-25 10:50:27 GMT 48.689217 15.449018 34,625 168 423 896
2021-06-25 10:50:25 GMT 48.693596 15.447645 34,675 168 424 1024
2021-06-25 10:50:22 GMT 48.699970 15.445693 34,600 168 424 1024
2021-06-25 10:50:19 GMT 48.706879 15.443608 34,575 168 424 1024
2021-06-25 10:50:16 GMT 48.710907 15.442341 34,500 168 424 960
2021-06-25 10:50:13 GMT 48.716637 15.440561 34,475 168 424 960
2021-06-25 10:50:10 GMT 48.722809 15.438678 34,175 168 424 960
2021-06-25 10:50:07 GMT 48.727623 15.437164 34,375 168 424 960
2021-06-25 10:50:05 GMT 48.732605 15.435650 34,350 168 424 960
2021-06-25 10:50:01 GMT 48.739120 15.433623 34,225 168 424 896
2021-06-25 10:49:58 GMT 48.746616 15.431237 34,225 168 424 896
2021-06-25 10:49:55 GMT 48.753368 15.429214 34,150 168 425 832
2021-06-25 10:49:52 GMT 48.757233 15.427974 34,150 168 425 832
2021-06-25 10:49:49 GMT 48.763367 15.426072 34,125 168 425 832
2021-06-25 10:49:46 GMT 48.768776 15.424371 34,050 168 426 896
2021-06-25 10:49:43 GMT 48.775909 15.422199 34,025 168 426 1024
2021-06-25 10:49:39 GMT 48.782089 15.420251 33,950 168 426 1216
2021-06-25 10:49:36 GMT 48.788654 15.418227 33,850 168 427 1600
2021-06-25 10:49:33 GMT 48.792706 15.416999 33,675 168 428 1728
2021-06-25 10:49:30 GMT 48.798290 15.415264 33,750 168 427 1664
2021-06-25 10:49:27 GMT 48.805088 15.413168 33,650 168 428 1728
2021-06-25 10:49:24 GMT 48.811882 15.411072 33,550 168 428 1664
2021-06-25 10:49:21 GMT 48.816925 15.409522 33,475 168 428 1664
2021-06-25 10:49:18 GMT 48.823334 15.407551 33,350 168 429 1664
2021-06-25 10:49:15 GMT 48.828552 15.406001 33,275 168 429 1664
2021-06-25 10:49:12 GMT 48.835373 15.403959 33,200 168 428 1664
2021-06-25 10:49:09 GMT 48.840050 15.402543 32,750 163 432 1600
2021-06-25 10:49:06 GMT 48.844482 15.401212 33,025 168 429 1664
2021-06-25 10:49:03 GMT 48.853455 15.398325 32,925 166 430 1600
2021-06-25 10:49:00 GMT 48.857300 15.396987 32,800 165 431 1600
2021-06-25 10:48:57 GMT 48.864990 15.393888 32,800 163 432 1600
2021-06-25 10:48:53 GMT 48.871517 15.390906 32,675 161 433 1664
2021-06-25 10:48:50 GMT 48.877010 15.388160 32,350 157 435 1408
2021-06-25 10:48:47 GMT 48.882706 15.385155 32,525 159 434 1664
2021-06-25 10:48:44 GMT 48.888519 15.381775 32,400 156 436 1152
2021-06-25 10:48:41 GMT 48.894096 15.378257 31,150 145 442 2304
2021-06-25 10:48:37 GMT 48.902573 15.372479 32,300 153 438 896
2021-06-25 10:48:34 GMT 48.905457 15.370296 32,300 153 439 896
2021-06-25 10:48:30 GMT 48.914253 15.363223 32,200 145 443 1664
2021-06-25 10:48:26 GMT 48.921841 15.356574 32,150 147 444 896
2021-06-25 10:48:22 GMT 48.928265 15.350358 32,100 146 444 896
2021-06-25 10:48:19 GMT 48.933525 15.345009 32,025 145 445 1280
2021-06-25 10:48:15 GMT 48.939808 15.338432 31,975 145 444 1344
2021-06-25 10:48:11 GMT 48.946606 15.331421 29,775 145 444 2304
2021-06-25 10:48:07 GMT 48.954529 15.323111 31,725 145 443 1856
2021-06-25 10:48:04 GMT 48.956909 15.320646 31,675 145 443 1856
2021-06-25 10:48:01 GMT 48.963642 15.313640 31,575 145 443 1792
2021-06-25 10:47:57 GMT 48.971786 15.305152 31,425 145 442 1536
2021-06-25 10:47:54 GMT 48.974117 15.302726 31,425 145 442 1536
2021-06-25 10:47:51 GMT 48.981052 15.295498 31,300 145 442 1792
2021-06-25 10:47:47 GMT 48.986919 15.289355 31,075 145 442 2240
2021-06-25 10:47:44 GMT 48.992294 15.283743 30,900 145 442 2304
2021-06-25 10:47:41 GMT 48.995670 15.280175 30,975 145 442 2304
2021-06-25 10:47:38 GMT 49.002777 15.272827 30,825 145 445 1664
2021-06-25 10:47:35 GMT 49.007996 15.267334 30,700 145 442 2304
2021-06-25 10:47:32 GMT 49.014061 15.260949 30,550 145 444 2304
2021-06-25 10:47:29 GMT 49.018112 15.256770 30,425 145 444 2304
2021-06-25 10:47:26 GMT 49.022324 15.252333 30,300 145 445 2240
2021-06-25 10:47:23 GMT 49.033493 15.240643 30,100 145 445 2240
2021-06-25 10:47:19 GMT 49.033493 15.240643 30,125 145 445 2240
2021-06-25 10:47:16 GMT 49.039616 15.234279 29,950 145 445 2304
2021-06-25 10:47:13 GMT 49.045715 15.227896 29,850 145 445 2112
2021-06-25 10:47:10 GMT 49.049438 15.223943 29,800 145 445 1792
2021-06-25 10:47:06 GMT 49.055878 15.217191 29,675 145 445 1408
2021-06-25 10:47:03 GMT 49.061142 15.211698 29,575 145 443 1664
2021-06-25 10:47:00 GMT 49.066196 15.206379 29,525 145 442 1856
2021-06-25 10:46:57 GMT 49.073273 15.199022 29,350 145 442 1600
2021-06-25 10:46:54 GMT 49.076157 15.195993 29,300 145 441 1536
2021-06-25 10:46:51 GMT 49.081188 15.190695 29,225 145 441 1536
2021-06-25 10:46:48 GMT 49.087234 15.184373 29,200 145 440 1664
2021-06-25 10:46:44 GMT 49.092964 15.178407 28,825 145 439 1728
2021-06-25 10:46:41 GMT 49.097122 15.174021 28,825 145 439 1728
2021-06-25 10:46:38 GMT 49.104172 15.166696 28,900 145 439 1728
2021-06-25 10:46:35 GMT 49.107815 15.162867 28,825 145 437 1792
2021-06-25 10:46:31 GMT 49.114838 15.155499 28,600 145 437 2048
2021-06-25 10:46:28 GMT 49.121502 15.148556 28,400 145 435 1792
2021-06-25 10:46:25 GMT 49.124817 15.145076 28,450 145 437 1856
2021-06-25 10:46:22 GMT 49.129623 15.140005 28,375 145 436 1664
2021-06-25 10:46:19 GMT 49.134796 15.134583 28,275 145 435 1792
2021-06-25 10:46:16 GMT 49.144867 15.123948 27,950 145 435 1984
2021-06-25 10:46:13 GMT 49.144867 15.123948 28,050 145 434 2240
2021-06-25 10:46:10 GMT 49.150314 15.118173 28,000 145 435 2048
2021-06-25 10:46:06 GMT 49.158554 15.109441 27,825 145 433 1984
2021-06-25 10:46:04 GMT 49.160049 15.107864 27,775 145 433 1984
2021-06-25 10:46:01 GMT 49.164642 15.103032 27,675 145 433 2240
2021-06-25 10:45:58 GMT 49.170410 15.096905 27,600 145 433 2048
2021-06-25 10:45:55 GMT 49.174339 15.092685 27,450 144 432 1856
2021-06-25 10:45:52 GMT 49.179878 15.086758 27,375 145 430 1984
2021-06-25 10:45:49 GMT 49.186069 15.080181 27,275 145 429 2112
2021-06-25 10:45:46 GMT 49.193619 15.072186 27,125 145 429 2048
2021-06-25 10:45:43 GMT 49.193619 15.072186 27,125 145 429 2048
2021-06-25 10:45:40 GMT 49.198975 15.066552 26,950 145 429 2048
2021-06-25 10:45:37 GMT 49.206322 15.058786 26,700 145 428 2176
2021-06-25 10:45:34 GMT 49.208603 15.056401 26,700 145 426 2112
2021-06-25 10:45:31 GMT 49.213806 15.050917 26,650 145 426 2112
2021-06-25 10:45:28 GMT 49.225498 15.038549 26,575 145 426 2112
2021-06-25 10:45:25 GMT 49.225498 15.038549 26,450 145 426 2112
2021-06-25 10:45:22 GMT 49.228386 15.035513 26,400 145 426 2112
2021-06-25 10:45:19 GMT 49.233582 15.030001 26,175 145 421 2816
2021-06-25 10:45:16 GMT 49.238251 15.025071 26,175 145 421 2816
2021-06-25 10:45:13 GMT 49.242279 15.020775 26,075 145 424 2432
2021-06-25 10:45:10 GMT 49.247147 15.015709 25,850 145 424 2368
2021-06-25 10:45:07 GMT 49.252625 15.009860 25,800 145 424 2112
2021-06-25 10:45:04 GMT 49.257294 15.004939 25,600 145 422 2240
2021-06-25 10:45:01 GMT 49.262882 14.999012 25,550 145 421 2304
2021-06-25 10:44:58 GMT 49.266281 14.995398 25,400 145 422 2304
2021-06-25 10:44:54 GMT 49.274780 14.986408 25,250 145 422 2368
2021-06-25 10:44:51 GMT 49.277966 14.983039 25,175 145 421 2368
2021-06-25 10:44:48 GMT 49.282948 14.977762 24,925 145 421 2304
2021-06-25 10:44:45 GMT 49.287460 14.972992 24,800 145 421 2432
2021-06-25 10:44:42 GMT 49.292721 14.967427 24,800 145 421 2432
2021-06-25 10:44:38 GMT 49.298950 14.960844 24,600 145 420 2368
2021-06-25 10:44:35 GMT 49.304535 14.954928 24,475 145 419 2240
2021-06-25 10:44:32 GMT 49.312832 14.946104 24,325 145 418 2112
2021-06-25 10:44:29 GMT 49.312832 14.946104 24,250 145 417 2304
2021-06-25 10:44:26 GMT 49.318047 14.940539 24,200 145 417 2368
2021-06-25 10:44:23 GMT 49.322800 14.935491 24,075 145 416 2432
2021-06-25 10:44:18 GMT 49.335297 14.922251 23,825 145 415 2176
2021-06-25 10:44:15 GMT 49.335297 14.922251 23,725 145 415 2240
2021-06-25 10:44:12 GMT 49.339226 14.918060 23,425 145 413 2304
2021-06-25 10:44:08 GMT 49.345650 14.911266 23,450 145 413 2688
2021-06-25 10:44:05 GMT 49.350998 14.905560 23,300 145 412 2688
2021-06-25 10:44:02 GMT 49.362396 14.893447 22,950 145 411 2560
2021-06-25 10:43:58 GMT 49.362396 14.893447 22,975 145 411 2496
2021-06-25 10:43:55 GMT 49.367889 14.887601 22,625 145 409 2496
2021-06-25 10:43:51 GMT 49.371918 14.883305 22,675 145 409 2496
2021-06-25 10:43:48 GMT 49.377228 14.877671 22,675 145 410 2432
2021-06-25 10:43:44 GMT 49.384506 14.869854 22,400 145 408 2432
2021-06-25 10:43:41 GMT 49.388397 14.865770 22,375 145 408 2304
2021-06-25 10:43:38 GMT 49.398605 14.854854 22,175 145 407 2304
2021-06-25 10:43:35 GMT 49.398605 14.854854 22,050 145 407 2624
2021-06-25 10:43:31 GMT 49.405704 14.847300 21,975 145 406 2752
2021-06-25 10:43:27 GMT 49.409569 14.843180 21,725 145 406 2432
2021-06-25 10:43:24 GMT 49.414490 14.837952 21,550 145 405 2304
2021-06-25 10:43:21 GMT 49.419437 14.832699 21,550 145 405 2304
2021-06-25 10:43:17 GMT 49.425861 14.825761 21,375 145 403 2496
2021-06-25 10:43:13 GMT 49.432144 14.819072 21,200 145 403 2496
2021-06-25 10:43:10 GMT 49.436600 14.814341 21,075 145 403 2432
2021-06-25 10:43:05 GMT 49.443737 14.806675 20,900 145 402 2240
2021-06-25 10:43:01 GMT 49.453308 14.796416 20,650 145 400 2496
2021-06-25 10:42:56 GMT 49.457748 14.791718 20,475 145 399 2624
2021-06-25 10:42:53 GMT 49.461987 14.787152 20,400 145 398 2624
2021-06-25 10:42:50 GMT 49.466640 14.782179 20,275 145 397 2368
2021-06-25 10:42:46 GMT 49.472992 14.775383 20,125 145 397 2368
2021-06-25 10:42:42 GMT 49.478577 14.769383 19,825 145 396 2368
2021-06-25 10:42:39 GMT 49.482010 14.765697 19,875 144 395 2560
2021-06-25 10:42:36 GMT 49.487728 14.759538 19,675 144 395 2560
2021-06-25 10:42:33 GMT 49.493549 14.753302 19,550 145 395 2624
2021-06-25 10:42:30 GMT 49.497162 14.749435 18,025 145 394 2560
2021-06-25 10:42:27 GMT 49.500870 14.745459 19,275 145 394 2432
2021-06-25 10:42:24 GMT 49.507465 14.738382 19,150 145 392 2368
2021-06-25 10:42:21 GMT 49.510120 14.735487 19,100 145 392 2432
2021-06-25 10:42:17 GMT 49.516079 14.729103 18,925 145 392 2496
2021-06-25 10:42:13 GMT 49.522018 14.722764 18,750 145 391 2624
2021-06-25 10:42:10 GMT 49.526459 14.717968 18,625 145 390 2496
2021-06-25 10:42:07 GMT 49.530899 14.713223 18,450 145 390 2432
2021-06-25 10:42:04 GMT 49.535934 14.707802 18,350 145 389 2432
2021-06-25 10:42:01 GMT 49.538891 14.704681 18,200 145 389 2368
2021-06-25 10:41:58 GMT 49.548481 14.694362 18,075 145 387 2304
2021-06-25 10:41:55 GMT 49.548481 14.694362 17,800 145 386 2240
2021-06-25 10:41:51 GMT 49.554344 14.688053 17,875 145 386 2240
2021-06-25 10:41:46 GMT 49.560631 14.681372 17,725 145 385 2176
2021-06-25 10:41:43 GMT 49.566914 14.674617 17,575 145 384 2048
2021-06-25 10:41:39 GMT 49.573746 14.667254 17,300 144 381 2304
2021-06-25 10:41:36 GMT 49.576309 14.664435 17,325 144 381 2304
2021-06-25 10:41:32 GMT 49.582260 14.658075 17,075 145 378 2432
2021-06-25 10:41:29 GMT 49.586281 14.653757 17,075 144 378 2368
2021-06-25 10:41:26 GMT 49.597172 14.642029 16,775 145 378 2496
2021-06-25 10:41:22 GMT 49.597172 14.642029 16,750 145 378 2560
2021-06-25 10:41:19 GMT 49.600616 14.638343 16,650 144 377 2496
2021-06-25 10:41:16 GMT 49.604900 14.633715 16,500 145 377 2240
2021-06-25 10:41:13 GMT 49.609177 14.629091 16,375 144 376 2112
2021-06-25 10:41:10 GMT 49.613846 14.624031 16,200 144 373 2304
2021-06-25 10:41:07 GMT 49.618286 14.619261 16,200 144 373 2368
2021-06-25 10:41:03 GMT 49.623383 14.613746 16,000 145 373 2560
2021-06-25 10:41:00 GMT 49.627625 14.609214 15,925 145 373 2624
2021-06-25 10:40:54 GMT 49.637466 14.598589 15,600 144 372 2816
2021-06-25 10:40:51 GMT 49.640560 14.595188 15,425 144 372 2944
2021-06-25 10:40:48 GMT 49.643692 14.591868 15,400 144 372 3008
2021-06-25 10:40:42 GMT 49.653687 14.581010 15,000 144 373 2560
2021-06-25 10:40:39 GMT 49.656528 14.577967 14,950 144 373 2432
2021-06-25 10:40:35 GMT 49.663193 14.570762 14,775 145 373 2240
2021-06-25 10:40:32 GMT 49.667419 14.566238 14,625 144 371 2112
2021-06-25 10:40:29 GMT 49.670792 14.562595 14,150 145 366 2176
2021-06-25 10:40:22 GMT 49.681732 14.550741 14,200 145 369 2176
2021-06-25 10:40:19 GMT 49.685486 14.546694 14,150 145 366 2176
2021-06-25 10:40:15 GMT 49.691349 14.540331 14,050 144 367 1984
2021-06-25 10:40:12 GMT 49.694962 14.536430 13,825 145 366 2368
2021-06-25 10:40:09 GMT 49.699123 14.531943 13,825 144 365 2496
2021-06-25 10:40:06 GMT 49.703964 14.526672 13,675 144 365 2432
2021-06-25 10:40:02 GMT 49.708805 14.521402 13,500 144 365 2176
2021-06-25 10:39:59 GMT 49.714325 14.515469 13,400 144 363 2176
2021-06-25 10:39:54 GMT 49.719406 14.509904 13,150 144 358 2112
2021-06-25 10:39:51 GMT 49.724899 14.503977 13,075 144 363 2368
2021-06-25 10:39:48 GMT 49.728333 14.500218 13,000 144 363 2368
2021-06-25 10:39:42 GMT 49.740509 14.486991 12,675 144 361 2496
2021-06-25 10:39:39 GMT 49.740509 14.486991 12,600 144 288 2368
2021-06-25 10:39:36 GMT 49.746094 14.480920 12,475 144 360 2176
2021-06-25 10:39:30 GMT 49.753601 14.472753 12,275 144 359 2048
2021-06-25 10:39:27 GMT 49.755936 14.470295 12,225 144 358 2112
2021-06-25 10:39:24 GMT 49.761597 14.464095 12,075 144 358 2112
2021-06-25 10:39:21 GMT 49.765553 14.459864 11,925 144 356 1920
2021-06-25 10:39:18 GMT 49.769302 14.455767 11,875 144 355 1792
2021-06-25 10:39:13 GMT 49.780838 14.443263 11,700 144 353 1472
2021-06-25 10:39:10 GMT 49.780838 14.443263 11,650 144 351 1472
2021-06-25 10:39:07 GMT 49.784546 14.439227 11,600 144 350 1280
2021-06-25 10:39:03 GMT 49.788757 14.434590 11,525 144 346 960
2021-06-25 10:38:59 GMT 49.794525 14.428374 11,400 144 340 1024
2021-06-25 10:38:56 GMT 49.799164 14.423267 11,400 144 340 1024
2021-06-25 10:38:53 GMT 49.802235 14.419927 11,350 144 310 640
2021-06-25 10:38:50 GMT 49.805511 14.416303 11,300 144 332 960
2021-06-25 10:38:47 GMT 49.809677 14.411822 11,250 144 330 832
2021-06-25 10:38:43 GMT 49.814526 14.406491 11,225 144 326 896
2021-06-25 10:38:38 GMT 49.820206 14.400330 11,100 145 320 1088
2021-06-25 10:38:35 GMT 49.824463 14.395776 11,075 144 318 960
2021-06-25 10:38:32 GMT 49.827713 14.392234 11,050 144 315 704
2021-06-25 10:38:29 GMT 49.832336 14.387175 10,975 144 308 896
2021-06-25 10:38:26 GMT 49.835846 14.383330 10,950 144 307 1280
2021-06-25 10:38:23 GMT 49.839294 14.379586 10,850 144 304 1920
2021-06-25 10:38:20 GMT 49.842865 14.375683 10,725 144 303 2368
2021-06-25 10:38:17 GMT 49.846554 14.371676 10,625 144 303 2432
2021-06-25 10:38:12 GMT 49.854328 14.363214 10,300 144 302 2304
2021-06-25 10:38:09 GMT 49.854328 14.363214 10,275 144 302 2368
2021-06-25 10:38:06 GMT 49.857971 14.359203 10,175 144 301 2240
2021-06-25 10:38:02 GMT 49.862568 14.354232 10,025 144 301 2240
2021-06-25 10:37:58 GMT 49.867222 14.349110 9,900 144 299 2176
2021-06-25 10:37:55 GMT 49.870712 14.345324 9,800 144 299 2112
2021-06-25 10:37:52 GMT 49.873974 14.341761 9,600 144 296 2176
2021-06-25 10:37:49 GMT 49.877464 14.337901 9,425 144 293 2176
2021-06-25 10:37:46 GMT 49.881042 14.334050 9,475 144 295 2240
2021-06-25 10:37:41 GMT 49.885391 14.329280 9,250 144 293 2368
2021-06-25 10:37:38 GMT 49.889847 14.324390 8,925 144 291 2176
2021-06-25 10:37:35 GMT 49.892944 14.320896 9,050 144 293 2176
2021-06-25 10:37:30 GMT 49.898438 14.314824 8,825 144 292 2176
2021-06-25 10:37:27 GMT 49.901485 14.311400 8,725 144 291 2176
2021-06-25 10:37:24 GMT 49.904369 14.308282 8,675 144 291 2176
2021-06-25 10:37:20 GMT 49.909584 14.302418 8,475 144 289 2368
2021-06-25 10:37:17 GMT 49.912216 14.299573 8,350 144 289 2368
2021-06-25 10:37:14 GMT 49.915031 14.296405 8,300 144 288 2368
2021-06-25 10:37:08 GMT 49.923225 14.287274 7,950 144 287 2496
2021-06-25 10:37:05 GMT 49.926159 14.284008 7,875 144 287 2496
2021-06-25 10:37:00 GMT 49.930252 14.279480 7,725 144 286 2496
2021-06-25 10:36:57 GMT 49.933933 14.275471 7,525 144 286 2496
2021-06-25 10:36:53 GMT 49.937805 14.271168 7,450 144 286 2496
2021-06-25 10:36:50 GMT 49.942123 14.266415 7,275 144 286 2624
2021-06-25 10:36:47 GMT 49.945057 14.263297 7,150 144 286 2560
2021-06-25 10:36:44 GMT 49.948643 14.259363 7,025 144 285 2368
2021-06-25 10:36:40 GMT 49.952087 14.255628 6,850 144 285 2368
2021-06-25 10:36:37 GMT 49.959770 14.247263 6,625 145 285 2368
2021-06-25 10:36:34 GMT 49.959770 14.247263 6,625 145 285 2368
2021-06-25 10:36:29 GMT 49.963772 14.242958 6,375 145 285 2368
2021-06-25 10:36:26 GMT 49.967777 14.238652 6,325 145 285 2240
2021-06-25 10:36:23 GMT 49.971039 14.235173 6,225 145 283 1920
2021-06-25 10:36:19 GMT 49.974564 14.231343 6,050 145 282 1472
2021-06-25 10:36:15 GMT 49.980103 14.225343 6,000 145 278 1536
2021-06-25 10:36:12 GMT 49.982254 14.223103 5,950 145 277 1664
2021-06-25 10:36:07 GMT 49.988167 14.216606 5,800 144 274 1408
2021-06-25 10:36:03 GMT 49.992588 14.211780 5,725 144 270 960
2021-06-25 10:35:57 GMT 49.998093 14.205611 5,625 143 261 768
2021-06-25 10:35:54 GMT 50.000748 14.202576 5,600 143 259 832
2021-06-25 10:35:49 GMT 50.005390 14.197379 5,500 143 252 1216
2021-06-25 10:35:46 GMT 50.008209 14.194119 5,475 143 252 1216
2021-06-25 10:35:42 GMT 50.012375 14.189288 5,375 143 247 1536
2021-06-25 10:35:39 GMT 50.015121 14.186096 5,275 142 245 1728
2021-06-25 10:35:36 GMT 50.017822 14.182916 5,175 142 243 1920
2021-06-25 10:35:33 GMT 50.020432 14.179808 5,100 142 241 1984
2021-06-25 10:35:29 GMT 50.023956 14.175616 4,875 142 241 2240
2021-06-25 10:35:26 GMT 50.026520 14.172508 4,800 142 240 2304
2021-06-25 10:35:23 GMT 50.028809 14.169761 4,575 142 240 2432
2021-06-25 10:35:18 GMT 50.033463 14.164124 4,525 142 240 2560
2021-06-25 10:35:14 GMT 50.037651 14.159224 4,325 142 240 2560
2021-06-25 10:35:10 GMT 50.041031 14.155306 4,175 144 241 2496
2021-06-25 10:35:06 GMT 50.044773 14.151281 3,950 191 222 0
2021-06-25 10:35:03 GMT 50.047100 14.148906 3,950 150 240 1536
2021-06-25 10:34:58 GMT 50.052109 14.144464 3,800 156 237 1280
2021-06-25 10:34:55 GMT 50.055153 14.142596 3,700 191 222 1152
2021-06-25 10:34:51 GMT 50.060555 14.140963 3,650 176 228 1216
2021-06-25 10:34:47 GMT 50.063187 14.140922 3,600 183 226 1152
2021-06-25 10:34:43 GMT 50.067352 14.141705 3,500 206 214 896
2021-06-25 10:34:39 GMT 50.071564 14.143886 3,450 203 215 960
2021-06-25 10:34:36 GMT 50.074520 14.146234 3,375 220 207 1088
2021-06-25 10:34:33 GMT 50.076187 14.148222 3,325 231 203 832
2021-06-25 10:34:27 GMT 50.079712 14.154077 3,275 238 199 768
2021-06-25 10:34:23 GMT 50.081966 14.159818 3,175 245 191 1344
2021-06-25 10:34:18 GMT 50.084106 14.166509 3,075 245 191 1344
2021-06-25 10:34:15 GMT 50.084995 14.169468 3,000 245 187 896
2021-06-25 10:34:12 GMT 50.085983 14.172652 2,975 245 183 1344
2021-06-25 10:34:07 GMT 50.089790 14.185280 2,600 245 182 1920
2021-06-25 10:34:03 GMT 50.089790 14.185280 2,650 246 180 2432
2021-06-25 10:33:55 GMT 50.092300 14.193469 2,325 245 181 2304
2021-06-25 10:33:52 GMT 50.093353 14.196938 2,275 246 180 2304
2021-06-25 10:33:45 GMT 50.095825 14.205395 1,950 246 179 2240
2021-06-25 10:33:41 GMT 50.097145 14.209850 1,850 246 180 2112
2021-06-25 10:33:35 GMT 50.099331 14.217274 1,600 247 177 1984
2021-06-25 10:33:31 GMT 50.100311 14.220718 1,525 247 175 2048
2021-06-25 10:33:24 GMT 50.102875 14.229608 1,250 246 170 1408
2021-06-25 10:33:21 GMT 50.103653 14.232354 1,225 246 170 1408
2021-06-25 10:33:11 GMT 50.107246 14.244294 1,000 246 161 256
2021-06-25 10:32:42 GMT 50.114056 14.267030 0 244 74
2021-06-25 10:32:34 GMT 50.114998 14.270182 0 244 40
2021-06-25 10:32:29 GMT 50.115311 14.271222 0 244 21
2021-06-25 10:32:21 GMT 50.115589 14.272216 0 247 14

Making use of Plane Finder data

You are free to use the raw flight data, aircraft information and images provided in this report for your own purposes provided the data is correctly attributed to Plane Finder. We ask that you please credit Plane Finder and link to planefinder.net in close proximity to the content.

Optionally one of the following logos (no smaller then 150x24px) can be used and must link to planefinder.net

Embedding the Plane Finder map

You are welcome to embed the Plane Finder playback map on your website to offer visitors a more interactive experience. We suggest using the following HTML code:

<iframe src="//planefinder.net/data/report/QS1082-OK-SWW-7700-squawk-2021-06-25/map" width="800" height="600" seamless="seamless"></iframe>

Where our data comes from

Plane Finder has a global network of data feeds and antenna radars that receive data broadcast directly from aircraft. The primary technologies used are ADS-B and MLAT. We also show feeds from the FAA and a FLARM glider feed.

Click here to find out more about the Plane Finder network.

How we collect our data